createdAt,value
2022-12-18T00:01:40.029Z,18.40
2022-12-18T00:04:22.344Z,22.40
2022-12-18T00:06:55.008Z,18.00
2022-12-18T00:09:39.627Z,18.60
2022-12-18T00:14:50.999Z,17.90
2022-12-18T00:17:23.280Z,17.50
2022-12-18T00:19:55.485Z,17.20
2022-12-18T00:22:27.837Z,17.10
2022-12-18T00:25:00.211Z,17.50
2022-12-18T00:27:32.456Z,17.60
2022-12-18T00:30:05.059Z,17.50
2022-12-18T00:32:38.117Z,18.30
2022-12-18T00:35:11.585Z,15.00
2022-12-18T00:37:43.529Z,17.30
2022-12-18T00:40:18.160Z,16.80
2022-12-18T00:42:59.396Z,17.40
2022-12-18T00:45:33.321Z,16.60
2022-12-18T00:48:05.903Z,18.20
2022-12-18T00:50:37.956Z,16.70
2022-12-18T00:53:12.372Z,16.30
2022-12-18T00:55:45.272Z,15.40
2022-12-18T00:58:18.754Z,15.70
2022-12-18T01:00:50.918Z,16.20
2022-12-18T01:03:23.092Z,14.40
2022-12-18T01:05:55.366Z,16.40
2022-12-18T01:08:28.866Z,16.60
2022-12-18T01:11:00.932Z,14.50
2022-12-18T01:13:33.099Z,14.60
2022-12-18T01:16:05.501Z,15.80
2022-12-18T01:18:39.684Z,15.00
2022-12-18T01:21:13.949Z,14.70
2022-12-18T01:23:48.423Z,15.30
2022-12-18T01:26:22.685Z,13.20
2022-12-18T01:28:58.155Z,16.10
2022-12-18T01:31:32.261Z,15.50
2022-12-18T01:34:06.545Z,14.00
2022-12-18T01:36:42.277Z,13.20
2022-12-18T01:39:17.038Z,14.50
2022-12-18T01:42:04.844Z,14.80
2022-12-18T01:44:58.341Z,14.20
2022-12-18T01:47:35.500Z,13.80
2022-12-18T01:50:11.307Z,13.90
2022-12-18T01:52:49.255Z,14.80
2022-12-18T01:55:24.806Z,14.70
2022-12-18T01:57:59.730Z,14.20
2022-12-18T02:00:32.521Z,13.90
2022-12-18T02:03:05.341Z,14.10
2022-12-18T02:05:47.239Z,13.30
2022-12-18T02:08:22.857Z,12.90
2022-12-18T02:11:07.205Z,13.70
2022-12-18T02:13:48.488Z,14.10
2022-12-18T02:19:00.932Z,13.00
2022-12-18T02:21:39.432Z,12.20
2022-12-18T02:24:31.297Z,11.80
2022-12-18T02:27:07.352Z,13.00
2022-12-18T02:29:45.020Z,13.40
2022-12-18T02:32:22.336Z,12.80
2022-12-18T02:34:56.525Z,12.10
2022-12-18T02:37:30.471Z,12.00
2022-12-18T02:40:08.654Z,14.10
2022-12-18T02:42:41.669Z,11.80
2022-12-18T02:45:14.926Z,13.60
2022-12-18T02:47:51.858Z,11.90
2022-12-18T02:50:31.450Z,13.00
2022-12-18T02:53:13.446Z,12.50
2022-12-18T02:55:55.882Z,12.10
2022-12-18T02:58:36.116Z,12.90
2022-12-18T03:01:17.989Z,12.80
2022-12-18T03:03:54.246Z,12.40
2022-12-18T03:06:32.077Z,14.40
2022-12-18T03:09:09.673Z,12.70
2022-12-18T03:12:03.355Z,11.00
2022-12-18T03:14:40.278Z,11.20
2022-12-18T03:17:23.863Z,11.50
2022-12-18T03:20:01.152Z,12.00
2022-12-18T03:22:35.779Z,11.00
2022-12-18T03:25:11.974Z,9.60
2022-12-18T03:27:48.723Z,10.80
2022-12-18T03:30:21.807Z,11.50
2022-12-18T03:33:00.665Z,12.20
2022-12-18T03:35:37.718Z,12.90
2022-12-18T03:38:11.350Z,12.20
2022-12-18T03:40:53.420Z,9.90
2022-12-18T03:43:37.769Z,12.70
2022-12-18T03:46:19.231Z,11.40
2022-12-18T03:49:04.436Z,10.60
2022-12-18T03:51:44.899Z,10.60
2022-12-18T03:54:19.253Z,12.30
2022-12-18T03:57:03.677Z,10.90
2022-12-18T03:59:37.558Z,11.70
2022-12-18T04:02:11.461Z,12.80
2022-12-18T04:04:45.507Z,11.50
2022-12-18T04:07:18.514Z,11.90
2022-12-18T04:09:53.298Z,10.20
2022-12-18T04:12:31.232Z,10.90
2022-12-18T04:15:03.529Z,11.00
2022-12-18T04:17:36.184Z,11.30
2022-12-18T04:20:10.099Z,11.00
2022-12-18T04:25:18.108Z,10.70
2022-12-18T04:27:59.394Z,11.10
2022-12-18T04:30:31.466Z,10.50
2022-12-18T04:33:03.531Z,11.10
2022-12-18T04:35:36.413Z,10.60
2022-12-18T04:38:10.392Z,11.10
2022-12-18T04:40:43.126Z,11.40
2022-12-18T04:43:21.426Z,10.40
2022-12-18T04:45:53.587Z,11.90
2022-12-18T04:48:25.835Z,9.60
2022-12-18T04:50:57.891Z,11.10
2022-12-18T04:53:30.096Z,9.20
2022-12-18T04:56:10.786Z,11.10
2022-12-18T04:58:45.506Z,11.00
2022-12-18T05:01:20.915Z,10.80
2022-12-18T05:03:54.619Z,10.00
2022-12-18T05:06:26.809Z,11.50
2022-12-18T05:08:59.187Z,11.80
2022-12-18T05:11:31.249Z,10.50
2022-12-18T05:14:03.313Z,11.40
2022-12-18T05:16:35.254Z,11.00
2022-12-18T05:19:07.349Z,11.30
2022-12-18T05:21:39.383Z,9.00
2022-12-18T05:24:11.812Z,9.90
2022-12-18T05:26:43.850Z,10.60
2022-12-18T05:29:15.918Z,13.00
2022-12-18T05:31:48.115Z,10.90
2022-12-18T05:34:20.260Z,10.70
2022-12-18T05:36:52.320Z,11.70
2022-12-18T05:39:24.251Z,10.20
2022-12-18T05:41:56.251Z,10.90
2022-12-18T05:44:28.418Z,10.00
2022-12-18T05:47:00.398Z,10.80
2022-12-18T05:49:32.652Z,10.80
2022-12-18T05:52:04.656Z,12.80
2022-12-18T05:54:37.167Z,11.10
2022-12-18T05:57:09.266Z,10.50
2022-12-18T05:59:41.224Z,11.10
2022-12-18T06:02:13.308Z,11.30
2022-12-18T06:04:45.513Z,12.60
2022-12-18T06:07:17.525Z,11.20
2022-12-18T06:09:49.693Z,10.20
2022-12-18T06:12:22.382Z,11.90
2022-12-18T06:14:54.448Z,11.10
2022-12-18T06:17:29.969Z,10.90
2022-12-18T06:20:02.370Z,11.00
2022-12-18T06:22:36.066Z,11.80
2022-12-18T06:25:10.481Z,12.20
2022-12-18T06:27:42.758Z,11.30
2022-12-18T06:30:16.838Z,12.20
2022-12-18T06:32:53.201Z,10.40
2022-12-18T06:35:28.584Z,11.10
2022-12-18T06:38:00.581Z,10.90
2022-12-18T06:40:32.803Z,10.60
2022-12-18T06:43:04.785Z,11.20
2022-12-18T06:45:37.194Z,12.70
2022-12-18T06:48:09.837Z,12.50
2022-12-18T06:50:45.798Z,10.30
2022-12-18T06:53:17.860Z,11.80
2022-12-18T06:55:50.065Z,11.00
2022-12-18T06:58:22.095Z,11.80
2022-12-18T07:00:54.204Z,11.00
2022-12-18T07:03:26.335Z,11.10
2022-12-18T07:05:58.602Z,10.70
2022-12-18T07:08:30.632Z,10.70
2022-12-18T07:11:05.222Z,10.60
2022-12-18T07:13:37.624Z,10.90
2022-12-18T07:16:18.496Z,13.20
2022-12-18T07:18:53.374Z,11.50
2022-12-18T07:21:26.912Z,12.40
2022-12-18T07:23:58.940Z,12.00
2022-12-18T07:26:31.003Z,12.00
2022-12-18T07:29:03.075Z,11.50
2022-12-18T07:31:35.083Z,11.30
2022-12-18T07:34:07.204Z,13.00
2022-12-18T07:36:39.205Z,11.90
2022-12-18T07:39:12.565Z,12.90
2022-12-18T07:41:47.600Z,11.60
2022-12-18T07:44:21.633Z,11.70
2022-12-18T07:46:53.677Z,14.30
2022-12-18T07:49:25.745Z,12.20
2022-12-18T07:51:59.572Z,12.50
2022-12-18T07:54:31.856Z,13.10
2022-12-18T07:57:03.888Z,12.30
2022-12-18T07:59:35.824Z,12.00
2022-12-18T08:02:08.285Z,13.40
2022-12-18T08:04:40.395Z,13.10
2022-12-18T08:07:12.462Z,13.50
2022-12-18T08:09:44.526Z,12.70
2022-12-18T08:12:16.561Z,12.90
2022-12-18T08:14:48.658Z,13.70
2022-12-18T08:17:21.340Z,15.40
2022-12-18T08:19:53.406Z,12.10
2022-12-18T08:22:25.443Z,11.90
2022-12-18T08:24:57.538Z,14.40
2022-12-18T08:27:30.306Z,13.90
2022-12-18T08:30:02.799Z,12.50
2022-12-18T08:32:35.180Z,12.50
2022-12-18T08:35:09.007Z,13.20
2022-12-18T08:37:42.171Z,11.00
2022-12-18T08:40:15.581Z,13.20
2022-12-18T08:43:05.658Z,13.70
2022-12-18T08:45:38.260Z,14.10
2022-12-18T08:48:10.507Z,12.40
2022-12-18T08:50:42.574Z,12.20
2022-12-18T08:53:14.639Z,13.80
2022-12-18T08:55:50.188Z,12.80
2022-12-18T08:58:22.664Z,14.40
2022-12-18T09:00:54.769Z,14.70
2022-12-18T09:03:26.945Z,14.50
2022-12-18T09:05:59.066Z,14.20
2022-12-18T09:08:31.952Z,12.60
2022-12-18T09:11:04.382Z,16.60
2022-12-18T09:13:36.393Z,14.40
2022-12-18T09:16:09.452Z,14.90
2022-12-18T09:18:42.197Z,15.60
2022-12-18T09:21:17.644Z,12.90
2022-12-18T09:23:53.172Z,15.00
2022-12-18T09:26:26.216Z,14.40
2022-12-18T09:28:58.312Z,12.40
2022-12-18T09:31:30.378Z,14.70
2022-12-18T09:34:02.344Z,14.60
2022-12-18T09:36:34.483Z,14.00
2022-12-18T09:39:08.836Z,15.50
2022-12-18T09:41:46.892Z,14.30
2022-12-18T09:44:27.770Z,11.80
2022-12-18T09:47:13.796Z,14.70
2022-12-18T09:49:47.817Z,13.40
2022-12-18T09:52:26.230Z,13.20
2022-12-18T09:55:03.899Z,13.70
2022-12-18T09:57:42.824Z,15.20
2022-12-18T10:00:22.242Z,13.60
2022-12-18T10:02:59.988Z,14.60
2022-12-18T10:05:40.149Z,13.90
2022-12-18T10:08:18.361Z,13.40
2022-12-18T10:10:54.505Z,16.20
2022-12-18T10:13:36.183Z,16.40
2022-12-18T10:16:20.122Z,12.50
2022-12-18T10:19:07.088Z,15.50
2022-12-18T10:21:46.308Z,15.30
2022-12-18T10:24:26.906Z,13.50
2022-12-18T10:27:11.842Z,13.90
2022-12-18T10:29:45.546Z,15.80
2022-12-18T10:32:20.617Z,15.00
2022-12-18T10:35:00.453Z,17.10
2022-12-18T10:37:33.631Z,15.30
2022-12-18T10:40:22.022Z,16.20
2022-12-18T10:43:07.833Z,14.60
2022-12-18T10:45:40.447Z,14.20
2022-12-18T10:48:24.045Z,13.80
2022-12-18T10:51:12.669Z,14.20
2022-12-18T10:53:53.790Z,14.40
2022-12-18T10:56:28.031Z,15.80
2022-12-18T10:59:07.161Z,15.40
2022-12-18T11:01:53.072Z,15.30
2022-12-18T11:04:28.545Z,14.60
2022-12-18T11:07:04.019Z,14.60
2022-12-18T11:09:38.158Z,15.90
2022-12-18T11:12:24.776Z,15.70
2022-12-18T11:15:01.343Z,15.60
2022-12-18T11:17:37.089Z,14.80
2022-12-18T11:20:23.595Z,14.50
2022-12-18T11:23:01.367Z,16.30
2022-12-18T11:25:36.337Z,15.50
2022-12-18T11:28:28.876Z,15.20
2022-12-18T11:31:25.928Z,15.30
2022-12-18T11:34:28.062Z,16.20
2022-12-18T11:37:00.796Z,15.90
2022-12-18T11:39:39.709Z,13.70
2022-12-18T11:42:21.300Z,15.20
2022-12-18T11:44:57.288Z,16.30
2022-12-18T11:47:36.694Z,16.30
2022-12-18T11:50:16.446Z,15.60
2022-12-18T11:52:54.331Z,16.80
2022-12-18T11:55:37.983Z,17.20
2022-12-18T11:58:22.453Z,15.00
2022-12-18T12:01:08.738Z,15.80
2022-12-18T12:03:59.118Z,15.30
2022-12-18T12:06:42.261Z,14.90
2022-12-18T12:09:22.518Z,16.60
2022-12-18T12:12:12.914Z,16.60
2022-12-18T12:14:54.403Z,17.20
2022-12-18T12:17:38.317Z,18.10
2022-12-18T12:20:18.707Z,17.60
2022-12-18T12:23:00.400Z,15.60
2022-12-18T12:25:42.160Z,19.70
2022-12-18T12:28:30.952Z,15.60
2022-12-18T12:31:12.578Z,16.70
2022-12-18T12:33:55.363Z,15.90
2022-12-18T12:36:35.367Z,18.40
2022-12-18T12:39:11.896Z,15.50
2022-12-18T12:42:05.146Z,17.10
2022-12-18T12:44:42.536Z,16.50
2022-12-18T12:47:18.768Z,15.30
2022-12-18T12:49:51.944Z,17.80
2022-12-18T12:52:35.090Z,16.30
2022-12-18T12:55:17.226Z,16.50
2022-12-18T12:57:58.403Z,17.00
2022-12-18T13:00:33.841Z,16.90
2022-12-18T13:03:18.005Z,16.50
2022-12-18T13:05:55.594Z,16.60
2022-12-18T13:08:31.162Z,17.30
2022-12-18T13:11:23.483Z,16.60
2022-12-18T13:13:57.361Z,17.50
2022-12-18T13:16:30.586Z,16.90
2022-12-18T13:19:02.578Z,18.20
2022-12-18T13:21:36.692Z,17.70
2022-12-18T13:24:28.764Z,17.70
2022-12-18T13:27:01.481Z,18.10
2022-12-18T13:29:53.516Z,19.00
2022-12-18T13:32:27.365Z,18.50
2022-12-18T13:35:30.293Z,18.10
2022-12-18T13:38:02.849Z,19.80
2022-12-18T13:41:02.403Z,18.90
2022-12-18T13:43:44.037Z,18.80
2022-12-18T13:46:29.409Z,20.50
2022-12-18T13:49:05.500Z,18.10
2022-12-18T13:51:41.863Z,20.70
2022-12-18T13:56:52.894Z,18.30
2022-12-18T13:59:26.601Z,20.80
2022-12-18T14:02:02.201Z,18.90
2022-12-18T14:04:37.809Z,20.50
2022-12-18T14:07:14.325Z,21.60
2022-12-18T14:10:01.865Z,22.60
2022-12-18T14:13:05.093Z,21.50
2022-12-18T14:15:41.691Z,20.80
2022-12-18T14:18:25.001Z,21.30
2022-12-18T14:20:59.741Z,19.90
2022-12-18T14:23:37.938Z,22.10
2022-12-18T14:26:26.487Z,20.70
2022-12-18T14:28:59.145Z,21.20
2022-12-18T14:31:33.495Z,20.90
2022-12-18T14:34:05.500Z,21.80
2022-12-18T14:36:37.622Z,24.70
2022-12-18T14:39:19.178Z,20.60
2022-12-18T14:41:52.300Z,22.70
2022-12-18T14:44:24.290Z,21.60
2022-12-18T14:46:56.431Z,22.20
2022-12-18T14:49:32.160Z,23.40
2022-12-18T14:52:09.252Z,21.90
2022-12-18T14:54:48.708Z,25.10
2022-12-18T14:57:26.116Z,23.00
2022-12-18T15:00:09.155Z,23.90
2022-12-18T15:02:41.602Z,20.40
2022-12-18T15:05:40.016Z,22.30
2022-12-18T15:08:37.954Z,21.20
2022-12-18T15:11:30.882Z,22.80
2022-12-18T15:14:23.561Z,23.90
2022-12-18T15:16:57.086Z,26.30
2022-12-18T15:19:37.933Z,22.80
2022-12-18T15:22:27.983Z,23.30
2022-12-18T15:25:01.413Z,23.10
2022-12-18T15:27:36.912Z,24.40
2022-12-18T15:30:25.138Z,24.30
2022-12-18T15:33:25.987Z,23.50
2022-12-18T15:36:02.454Z,25.80
2022-12-18T15:38:35.588Z,27.20
2022-12-18T15:41:22.871Z,25.70
2022-12-18T15:43:57.227Z,25.40
2022-12-18T15:46:29.865Z,25.00
2022-12-18T15:49:03.142Z,26.10
2022-12-18T15:51:38.517Z,24.10
2022-12-18T15:54:16.717Z,25.40
2022-12-18T15:57:06.466Z,27.50
2022-12-18T15:59:38.806Z,27.90
2022-12-18T16:02:18.918Z,28.40
2022-12-18T16:04:51.473Z,25.90
2022-12-18T16:07:25.058Z,26.20
2022-12-18T16:09:59.899Z,28.30
2022-12-18T16:12:35.489Z,27.70
2022-12-18T16:15:13.016Z,28.90
2022-12-18T16:17:46.009Z,28.30
2022-12-18T16:20:21.849Z,29.90
2022-12-18T16:22:54.849Z,29.00
2022-12-18T16:25:28.750Z,29.70
2022-12-18T16:28:00.956Z,30.20
2022-12-18T16:30:35.788Z,27.10
2022-12-18T16:33:12.571Z,32.60
2022-12-18T16:35:44.733Z,30.70
2022-12-18T16:38:16.799Z,35.10
2022-12-18T16:41:02.691Z,37.30
2022-12-18T16:43:34.759Z,38.60
2022-12-18T16:46:07.311Z,38.50
2022-12-18T16:48:39.912Z,39.90
2022-12-18T16:51:11.980Z,41.30
2022-12-18T16:53:44.758Z,39.50
2022-12-18T16:56:17.033Z,43.30
2022-12-18T16:58:53.944Z,37.10
2022-12-18T17:01:27.001Z,44.00
2022-12-18T17:04:01.185Z,50.40
2022-12-18T17:06:35.354Z,44.40
2022-12-18T17:09:09.095Z,48.10
2022-12-18T17:11:41.205Z,52.20
2022-12-18T17:14:17.136Z,55.10
2022-12-18T17:17:01.889Z,54.30
2022-12-18T17:19:40.038Z,57.30
2022-12-18T17:22:12.209Z,56.30
2022-12-18T17:24:44.311Z,62.10
2022-12-18T17:27:16.745Z,60.00
2022-12-18T17:29:50.348Z,56.50
2022-12-18T17:32:22.516Z,60.10
2022-12-18T17:34:54.583Z,64.20
2022-12-18T17:37:26.957Z,61.00
2022-12-18T17:39:59.026Z,65.60
2022-12-18T17:42:30.989Z,62.90
2022-12-18T17:45:03.463Z,65.50
2022-12-18T17:47:38.397Z,68.20
2022-12-18T17:50:11.704Z,67.50
2022-12-18T17:52:43.761Z,70.10
2022-12-18T17:55:16.310Z,75.60
2022-12-18T17:57:48.404Z,65.70
2022-12-18T18:00:22.013Z,75.30
2022-12-18T18:02:54.292Z,71.70
2022-12-18T18:05:26.649Z,72.40
2022-12-18T18:07:59.134Z,81.40
2022-12-18T18:10:33.353Z,75.50
2022-12-18T18:13:25.990Z,79.30
2022-12-18T18:16:03.722Z,76.00
2022-12-18T18:18:36.329Z,75.80
2022-12-18T18:21:10.152Z,78.30
2022-12-18T18:23:43.242Z,74.50
2022-12-18T18:26:17.482Z,78.00
2022-12-18T18:28:50.672Z,77.40
2022-12-18T18:31:22.868Z,81.20
2022-12-18T18:33:55.012Z,80.10
2022-12-18T18:36:27.457Z,79.00
2022-12-18T18:39:01.497Z,78.30
2022-12-18T18:41:33.671Z,78.10
2022-12-18T18:44:06.043Z,77.50
2022-12-18T18:46:38.518Z,81.70
2022-12-18T18:49:11.242Z,82.00
2022-12-18T18:51:44.039Z,80.40
2022-12-18T18:54:16.380Z,81.10
2022-12-18T18:59:42.096Z,81.50
2022-12-18T19:02:16.743Z,82.60
2022-12-18T19:04:48.856Z,83.70
2022-12-18T19:07:30.339Z,85.00
2022-12-18T19:10:05.502Z,78.80
2022-12-18T19:12:55.809Z,84.90
2022-12-18T19:15:27.977Z,84.80
2022-12-18T19:18:00.453Z,81.60
2022-12-18T19:20:32.622Z,85.40
2022-12-18T19:23:05.201Z,86.40
2022-12-18T19:25:41.594Z,86.50
2022-12-18T19:28:21.282Z,85.50
2022-12-18T19:30:59.405Z,87.50
2022-12-18T19:33:43.261Z,87.90
2022-12-18T19:36:22.635Z,85.00
2022-12-18T19:38:56.847Z,83.90
2022-12-18T19:41:31.262Z,88.20
2022-12-18T19:44:07.399Z,88.20
2022-12-18T19:46:42.443Z,91.10
2022-12-18T19:49:17.644Z,86.50
2022-12-18T19:54:22.734Z,78.20
2022-12-18T19:56:54.799Z,89.70
2022-12-18T19:59:27.379Z,87.30
2022-12-18T20:01:59.612Z,87.00
2022-12-18T20:04:32.211Z,90.20
2022-12-18T20:07:05.009Z,87.80
2022-12-18T20:09:37.588Z,91.80
2022-12-18T20:12:11.089Z,92.40
2022-12-18T20:14:43.153Z,93.20
2022-12-18T20:17:15.215Z,93.10
2022-12-18T20:19:47.698Z,89.00
2022-12-18T20:22:20.024Z,90.40
2022-12-18T20:24:52.135Z,90.30
2022-12-18T20:27:24.305Z,93.00
2022-12-18T20:29:56.272Z,92.30
2022-12-18T20:32:35.336Z,94.40
2022-12-18T20:35:10.162Z,94.40
2022-12-18T20:37:48.683Z,90.40
2022-12-18T20:40:23.068Z,90.60
2022-12-18T20:42:55.135Z,91.70
2022-12-18T20:45:29.044Z,91.40
2022-12-18T20:48:01.688Z,91.90
2022-12-18T20:50:34.321Z,93.80
2022-12-18T20:53:06.690Z,93.40
2022-12-18T20:55:44.849Z,87.60
2022-12-18T20:58:16.954Z,89.90
2022-12-18T21:00:49.039Z,90.00
2022-12-18T21:03:21.254Z,92.50
2022-12-18T21:05:53.460Z,92.50
2022-12-18T21:08:28.289Z,92.20
2022-12-18T21:11:32.816Z,91.60
2022-12-18T21:14:06.518Z,85.50
2022-12-18T21:16:40.117Z,89.70
2022-12-18T21:19:13.960Z,93.90
2022-12-18T21:21:47.439Z,85.90
2022-12-18T21:24:20.436Z,86.00
2022-12-18T21:26:53.200Z,90.20
2022-12-18T21:29:27.805Z,85.70
2022-12-18T21:32:00.116Z,87.00
2022-12-18T21:34:34.280Z,88.60
2022-12-18T21:37:06.691Z,88.40
2022-12-18T21:39:39.787Z,86.80
2022-12-18T21:42:30.493Z,84.60
2022-12-18T21:45:02.900Z,84.70
2022-12-18T21:47:35.033Z,88.80
2022-12-18T21:50:08.956Z,88.60
2022-12-18T21:52:41.103Z,91.20
2022-12-18T21:55:13.285Z,88.80
2022-12-18T21:57:45.342Z,90.90
2022-12-18T22:00:19.815Z,85.20
2022-12-18T22:03:05.643Z,97.40
2022-12-18T22:05:44.476Z,92.90
2022-12-18T22:08:16.748Z,87.70
2022-12-18T22:10:48.811Z,92.30
2022-12-18T22:13:20.981Z,87.40
2022-12-18T22:15:53.089Z,91.70
2022-12-18T22:18:25.216Z,85.60
2022-12-18T22:21:05.987Z,88.80
2022-12-18T22:23:38.057Z,88.60
2022-12-18T22:26:10.916Z,86.10
2022-12-18T22:29:00.770Z,89.50
2022-12-18T22:31:32.980Z,89.70
2022-12-18T22:34:05.933Z,89.40
2022-12-18T22:36:42.449Z,89.80
2022-12-18T22:39:17.279Z,89.30
2022-12-18T22:41:50.164Z,92.90
2022-12-18T22:44:22.880Z,90.90
2022-12-18T22:47:06.792Z,86.70
2022-12-18T22:49:40.086Z,92.80
2022-12-18T22:52:12.766Z,86.90
2022-12-18T22:54:47.213Z,89.30
2022-12-18T22:57:19.154Z,93.50
2022-12-18T22:59:56.562Z,87.10
2022-12-18T23:02:31.970Z,92.60
2022-12-18T23:05:07.023Z,89.00
2022-12-18T23:07:39.194Z,91.30
2022-12-18T23:10:12.559Z,86.30
2022-12-18T23:12:44.861Z,91.10
2022-12-18T23:15:17.132Z,91.70
2022-12-18T23:17:51.484Z,92.00
2022-12-18T23:20:23.520Z,89.50
2022-12-18T23:22:55.556Z,97.00
2022-12-18T23:25:27.652Z,88.30
2022-12-18T23:27:59.717Z,87.40
2022-12-18T23:30:32.806Z,91.10
2022-12-18T23:33:05.077Z,85.60
2022-12-18T23:35:37.453Z,93.90
2022-12-18T23:38:09.517Z,91.80
2022-12-18T23:40:41.485Z,91.10
2022-12-18T23:43:15.083Z,88.30
2022-12-18T23:45:51.094Z,89.70
2022-12-18T23:48:26.078Z,84.30
2022-12-18T23:50:58.476Z,88.20
2022-12-18T23:53:30.621Z,88.10
2022-12-18T23:56:03.507Z,87.90
2022-12-18T23:58:36.655Z,87.50
